Time;durP1;ratioP1;P1;durP2;ratioP2;P2;SDS_P1;SDS_P2;PMS_P1;PMS_P2;Temp;Humidity;BMP_temperature;BMP_pressure;BME280_temperature;BME280_humidity;BME280_pressure;Samples;Min_cycle;Max_cycle;Signal;HPM_P1;HPM_P2
2022/01/06 00:01:30;;;;;;;12.23;4.73;;;;;;;3.12;100.00;99033.03;10505125;28;20216;-64
2022/01/06 00:06:39;;;;;;;9.97;4.50;;;;;;;3.04;100.00;99032.19;10504882;28;20254;-65
2022/01/06 00:11:42;;;;;;;10.47;4.43;;;;;;;2.85;100.00;99027.94;10504532;28;20228;-67
2022/01/06 00:17:00;;;;;;;14.47;4.40;;;;;;;3.11;100.00;99013.38;10510903;28;20219;-65
2022/01/06 00:27:26;;;;;;;13.67;4.70;;;;;;;2.76;100.00;99018.53;10545953;28;20238;-65
2022/01/06 00:32:30;;;;;;;9.57;3.93;;;;;;;2.74;100.00;99021.97;10546017;28;20290;-69
2022/01/06 00:37:34;;;;;;;12.13;4.27;;;;;;;2.66;100.00;99026.25;10548276;28;20227;-69
2022/01/06 00:42:39;;;;;;;12.80;4.97;;;;;;;2.72;100.00;99021.97;10548738;28;20549;-65
2022/01/06 00:47:44;;;;;;;12.73;4.43;;;;;;;2.70;100.00;99022.81;10548245;28;20234;-65
2022/01/06 00:52:49;;;;;;;12.47;4.53;;;;;;;2.75;100.00;99021.13;10548404;28;20220;-69
2022/01/06 00:57:55;;;;;;;14.33;5.93;;;;;;;2.71;100.00;99016.88;10548110;28;20231;-65
2022/01/06 01:02:58;;;;;;;13.70;5.03;;;;;;;2.78;100.00;99009.16;10546653;28;20223;-65
2022/01/06 01:08:04;;;;;;;13.60;4.73;;;;;;;2.86;100.00;99014.28;10547512;28;20227;-68
2022/01/06 01:13:10;;;;;;;14.17;4.63;;;;;;;2.91;100.00;98999.75;10547659;28;20672;-67
2022/01/06 01:18:18;;;;;;;9.97;4.33;;;;;;;3.00;100.00;98992.06;10548038;28;20219;-66
2022/01/06 01:23:23;;;;;;;13.23;4.20;;;;;;;3.03;100.00;99003.16;10547190;28;20223;-69
2022/01/06 01:28:33;;;;;;;11.53;4.57;;;;;;;2.95;100.00;99004.03;10546905;28;20717;-67
2022/01/06 01:33:37;;;;;;;9.57;4.27;;;;;;;2.94;100.00;98992.06;10546740;28;20249;-67
2022/01/06 01:38:42;;;;;;;10.97;4.87;;;;;;;2.99;100.00;98985.22;10546608;28;20660;-69
2022/01/06 01:43:47;;;;;;;12.13;4.07;;;;;;;3.11;100.00;98988.59;10546356;28;20215;-65
2022/01/06 01:49:11;;;;;;;12.83;4.47;;;;;;;3.09;100.00;98985.19;10545870;28;20227;-70
2022/01/06 01:54:15;;;;;;;10.27;4.30;;;;;;;3.14;100.00;98990.31;10545783;28;20696;-67
2022/01/06 01:59:18;;;;;;;11.20;4.37;;;;;;;3.17;100.00;98996.28;10545787;28;20211;-67
2022/01/06 02:04:21;;;;;;;9.63;4.33;;;;;;;3.09;100.00;99012.56;10545434;28;20250;-66
2022/01/06 02:09:26;;;;;;;10.13;4.67;;;;;;;2.92;100.00;98999.75;10545024;28;20227;-70
2022/01/06 02:14:29;;;;;;;10.53;4.20;;;;;;;3.06;100.00;99012.53;10544679;28;20673;-67
2022/01/06 02:19:33;;;;;;;9.87;4.00;;;;;;;3.04;100.00;99002.28;10544932;28;20540;-66
2022/01/06 02:24:38;;;;;;;9.40;4.17;;;;;;;3.19;100.00;99006.53;10544724;28;20647;-64
2022/01/06 02:29:42;;;;;;;9.17;4.07;;;;;;;3.18;100.00;99007.38;10544320;28;20306;-63
2022/01/06 02:34:46;;;;;;;11.90;3.90;;;;;;;3.32;100.00;98997.94;10544274;28;20226;-68
2022/01/06 02:39:53;;;;;;;9.77;3.60;;;;;;;3.27;100.00;99012.50;10544108;28;20219;-66
2022/01/06 02:44:56;;;;;;;7.57;3.10;;;;;;;3.31;100.00;99006.50;10544050;28;20215;-65
2022/01/06 02:50:00;;;;;;;8.23;3.87;;;;;;;3.28;100.00;99009.06;10544211;28;20227;-66
2022/01/06 02:55:07;;;;;;;7.17;3.83;;;;;;;3.26;100.00;98995.41;10543319;28;20548;-68
2022/01/06 03:00:13;;;;;;;6.83;3.43;;;;;;;3.45;100.00;99004.75;10543481;28;20219;-66
2022/01/06 03:05:17;;;;;;;7.90;3.30;;;;;;;3.51;100.00;99000.44;10543211;28;20242;-67
2022/01/06 03:10:23;;;;;;;5.07;2.70;;;;;;;3.72;100.00;98994.38;10543221;28;20310;-68
2022/01/06 03:15:26;;;;;;;11.70;4.07;;;;;;;3.66;100.00;99016.63;10542802;28;20238;-68
2022/01/06 03:20:30;;;;;;;8.90;3.47;;;;;;;3.57;100.00;99011.53;10542739;28;20215;-67
2022/01/06 03:25:34;;;;;;;7.87;3.47;;;;;;;3.61;100.00;99018.38;10542055;28;20663;-65
2022/01/06 03:30:38;;;;;;;20.33;8.57;;;;;;;3.66;100.00;99021.75;10542526;28;20713;-66
2022/01/06 03:35:41;;;;;;;6.53;3.10;;;;;;;3.70;100.00;99021.72;10542592;28;20230;-66
2022/01/06 03:40:45;;;;;;;10.80;3.10;;;;;;;3.62;100.00;99015.78;10542527;28;20187;-65
2022/01/06 03:45:49;;;;;;;8.13;3.87;;;;;;;3.56;100.00;99031.19;10542194;28;20198;-67
2022/01/06 03:50:52;;;;;;;8.50;3.70;;;;;;;3.65;100.00;99035.44;10542447;28;20196;-64
2022/01/06 03:55:56;;;;;;;10.70;3.93;;;;;;;3.80;100.00;99040.47;10542134;28;20206;-65
2022/01/06 04:01:00;;;;;;;6.83;3.47;;;;;;;3.68;100.00;99037.97;10542086;28;20577;-68
2022/01/06 04:06:04;;;;;;;8.70;3.40;;;;;;;3.65;100.00;99054.25;10541675;28;20307;-67
2022/01/06 04:11:09;;;;;;;11.17;4.27;;;;;;;3.63;100.00;99043.13;10541996;28;20197;-66
2022/01/06 04:16:15;;;;;;;10.10;3.97;;;;;;;3.67;100.00;99049.09;10541351;28;20198;-66
2022/01/06 04:21:18;;;;;;;7.70;3.03;;;;;;;3.68;100.00;99064.50;10540589;28;20188;-67
2022/01/06 04:26:23;;;;;;;10.07;3.43;;;;;;;3.47;100.00;99054.28;10541610;28;20705;-65
2022/01/06 04:31:26;;;;;;;9.70;4.03;;;;;;;3.20;100.00;99060.34;10541756;28;20199;-67
2022/01/06 04:36:29;;;;;;;7.87;3.03;;;;;;;3.17;100.00;99069.75;10545464;28;20191;-65
2022/01/06 04:41:34;;;;;;;9.27;3.80;;;;;;;3.04;100.00;99068.91;10549351;28;20196;-64
2022/01/06 04:46:37;;;;;;;8.93;3.80;;;;;;;3.07;100.00;99070.63;10548690;28;20215;-67
2022/01/06 04:51:40;;;;;;;7.83;4.03;;;;;;;3.24;100.00;99080.00;10548361;28;20192;-65
2022/01/06 04:56:45;;;;;;;7.80;3.83;;;;;;;3.34;100.00;99083.41;10548298;28;20206;-67
2022/01/06 05:01:48;;;;;;;8.10;3.80;;;;;;;3.20;100.00;99078.31;10547762;28;20198;-66
2022/01/06 05:06:53;;;;;;;6.60;3.53;;;;;;;3.30;100.00;99094.50;10548300;28;20280;-66
2022/01/06 05:11:57;;;;;;;7.47;3.93;;;;;;;3.31;100.00;99103.91;10547601;28;20205;-68
2022/01/06 05:17:01;;;;;;;8.03;4.43;;;;;;;3.40;100.00;99099.63;10547375;28;20238;-63
2022/01/06 05:22:05;;;;;;;6.73;4.00;;;;;;;3.38;100.00;99109.03;10547369;28;20211;-64
2022/01/06 05:27:10;;;;;;;7.43;3.97;;;;;;;3.41;100.00;99108.19;10547103;28;20215;-66
2022/01/06 05:32:13;;;;;;;6.23;3.47;;;;;;;3.35;100.00;99103.03;10546964;28;20567;-67
2022/01/06 05:37:17;;;;;;;9.10;3.63;;;;;;;3.50;100.00;99110.72;10546580;28;20226;-65
2022/01/06 05:42:22;;;;;;;7.03;4.03;;;;;;;3.59;100.00;99102.16;10546466;28;20220;-66
2022/01/06 05:47:25;;;;;;;7.43;4.00;;;;;;;3.47;100.00;99103.00;10543805;28;20597;-69
2022/01/06 05:52:28;;;;;;;7.17;4.03;;;;;;;3.43;100.00;99111.59;10542676;28;20683;-68
2022/01/06 05:57:32;;;;;;;11.03;4.33;;;;;;;3.44;100.00;99124.41;10542943;28;20629;-70
2022/01/06 06:02:36;;;;;;;6.00;3.60;;;;;;;3.57;100.00;99130.38;10542518;28;20235;-64
2022/01/06 06:07:39;;;;;;;6.77;3.27;;;;;;;3.65;100.00;99133.78;10542077;28;20219;-67
2022/01/06 06:12:44;;;;;;;5.30;2.73;;;;;;;3.55;100.00;99147.47;10542155;28;20219;-64
2022/01/06 06:17:49;;;;;;;9.37;3.73;;;;;;;3.57;100.00;99155.16;10541744;28;20218;-67
2022/01/06 06:22:52;;;;;;;8.97;5.73;;;;;;;3.65;100.00;99167.13;10541643;28;20930;-68
2022/01/06 06:27:57;;;;;;;5.27;2.50;;;;;;;3.43;100.00;99179.09;10533215;28;20269;-69
2022/01/06 06:33:01;;;;;;;6.07;2.73;;;;;;;3.52;100.00;99183.38;10499093;28;20244;-63
2022/01/06 06:38:05;;;;;;;7.13;3.03;;;;;;;3.63;100.00;99196.19;10499376;28;20322;-67
2022/01/06 06:43:13;;;;;;;5.67;2.50;;;;;;;3.58;100.00;99196.19;10498897;28;20294;-67
2022/01/06 06:48:17;;;;;;;8.20;4.13;;;;;;;3.61;100.00;99214.13;10498461;28;20224;-65
2022/01/06 06:53:20;;;;;;;7.27;2.87;;;;;;;3.47;100.00;99210.72;10498594;28;20543;-60
2022/01/06 06:58:24;;;;;;;5.10;2.50;;;;;;;3.41;100.00;99218.44;10497267;28;20220;-64
2022/01/06 07:03:28;;;;;;;5.67;2.40;;;;;;;3.52;100.00;99234.66;10498100;28;20732;-67
2022/01/06 07:08:31;;;;;;;6.33;3.10;;;;;;;3.47;100.00;99234.66;10498324;28;20242;-66
2022/01/06 07:13:35;;;;;;;6.33;3.27;;;;;;;3.50;100.00;99236.41;10498104;28;20325;-65
2022/01/06 07:18:39;;;;;;;6.43;2.80;;;;;;;3.48;100.00;99240.66;10498246;28;20216;-68
2022/01/06 07:23:42;;;;;;;5.20;2.03;;;;;;;3.57;100.00;99255.19;10497603;28;20687;-65
2022/01/06 07:28:47;;;;;;;6.00;2.50;;;;;;;3.57;100.00;99274.00;10498782;28;20653;-65
2022/01/06 07:33:50;;;;;;;6.13;2.23;;;;;;;3.68;100.00;99269.72;10501134;28;20216;-65
2022/01/06 07:38:53;;;;;;;6.80;2.40;;;;;;;3.70;100.00;99285.09;10500665;28;20231;-68
2022/01/06 07:43:58;;;;;;;5.17;2.20;;;;;;;3.65;100.00;99282.56;10167910;27;10000566;-65
2022/01/06 07:49:01;;;;;;;5.13;2.10;;;;;;;3.61;100.00;99292.81;10538702;28;20528;-67
2022/01/06 07:54:05;;;;;;;8.97;4.40;;;;;;;3.59;100.00;99295.38;10538803;28;20219;-68
2022/01/06 07:59:12;;;;;;;5.83;2.00;;;;;;;3.54;100.00;99313.31;10538520;28;20672;-68
2022/01/06 08:04:15;;;;;;;4.93;2.27;;;;;;;3.69;100.00;99311.63;10538411;28;20232;-65
2022/01/06 08:09:19;;;;;;;4.33;1.57;;;;;;;3.49;100.00;99324.44;10539530;28;20219;-67
2022/01/06 08:14:23;;;;;;;5.57;2.03;;;;;;;3.40;100.00;99332.09;10546754;28;20216;-70
2022/01/06 08:19:27;;;;;;;4.37;1.47;;;;;;;3.46;100.00;99338.13;10546678;28;20272;-69
2022/01/06 08:24:30;;;;;;;4.33;1.40;;;;;;;3.39;100.00;99346.66;10546497;28;20288;-69
2022/01/06 08:29:36;;;;;;;4.93;1.90;;;;;;;3.53;100.00;99359.50;10546417;28;20241;-66
2022/01/06 08:34:39;;;;;;;4.77;1.73;;;;;;;3.28;100.00;99375.66;10545893;28;20211;-66
2022/01/06 08:39:43;;;;;;;6.80;1.97;;;;;;;3.24;100.00;99361.13;10545564;28;20600;-66
2022/01/06 08:44:48;;;;;;;6.80;2.50;;;;;;;3.36;100.00;99366.31;10517215;28;20232;-65
2022/01/06 08:49:51;;;;;;;6.30;2.20;;;;;;;3.46;100.00;99379.16;10503388;28;20224;-70
2022/01/06 08:54:54;;;;;;;12.90;6.03;;;;;;;3.35;100.00;99383.38;10502964;28;20216;-66
2022/01/06 08:59:59;;;;;;;5.93;2.30;;;;;;;3.30;100.00;99391.91;10502848;28;20219;-62
2022/01/06 09:05:05;;;;;;;5.87;1.70;;;;;;;3.33;100.00;99403.03;10502940;28;20247;-64
2022/01/06 09:10:09;;;;;;;7.83;1.83;;;;;;;3.35;100.00;99415.84;10504598;28;20224;-67
2022/01/06 09:15:14;;;;;;;4.70;1.70;;;;;;;3.32;100.00;99409.03;10505524;28;20216;-68
2022/01/06 09:20:17;;;;;;;4.63;2.40;;;;;;;3.28;100.00;99404.72;10505064;28;20280;-67
2022/01/06 09:25:20;;;;;;;5.83;2.83;;;;;;;3.48;100.00;99413.34;10504705;28;20212;-64
2022/01/06 09:30:25;;;;;;;6.30;2.70;;;;;;;3.31;100.00;99424.41;10505081;28;20231;-68
2022/01/06 09:35:29;;;;;;;5.90;2.67;;;;;;;3.43;100.00;99416.75;10504667;28;20514;-65
2022/01/06 09:40:32;;;;;;;9.57;3.20;;;;;;;3.37;100.00;99430.41;10504484;28;20224;-69
2022/01/06 09:45:37;;;;;;;6.40;3.47;;;;;;;3.45;100.00;99441.53;10504681;28;20238;-67
2022/01/06 09:50:42;;;;;;;6.93;3.57;;;;;;;3.28;100.00;99462.81;10504198;28;20306;-65
2022/01/06 09:55:45;;;;;;;6.10;2.77;;;;;;;3.25;100.00;99443.19;10503838;28;20220;-66
2022/01/06 10:00:55;;;;;;;5.10;2.40;;;;;;;3.29;100.00;99450.03;10504046;28;20311;-65
2022/01/06 10:06:10;;;;;;;5.27;2.57;;;;;;;3.41;100.00;99446.66;10503651;28;20319;-63
2022/01/06 10:11:15;;;;;;;6.17;2.53;;;;;;;3.44;100.00;99446.66;10503286;28;20235;-67
2022/01/06 10:16:20;;;;;;;8.20;2.43;;;;;;;3.39;100.00;99443.22;10503193;28;20772;-66
2022/01/06 10:21:24;;;;;;;7.97;2.50;;;;;;;3.31;100.00;99455.19;10502863;28;20545;-64
2022/01/06 10:26:27;;;;;;;6.77;2.87;;;;;;;3.16;100.00;99455.09;10502846;28;20219;-66
2022/01/06 10:31:32;;;;;;;9.43;3.90;;;;;;;3.15;100.00;99469.63;10502441;28;20250;-65
2022/01/06 10:36:36;;;;;;;7.30;3.07;;;;;;;3.08;100.00;99478.13;10501895;28;20227;-63
2022/01/06 10:41:39;;;;;;;38.43;18.37;;;;;;;3.15;100.00;99473.88;10502170;28;20220;-65
2022/01/06 10:46:45;;;;;;;8.53;3.20;;;;;;;3.03;100.00;99477.25;10502751;28;20255;-67
2022/01/06 10:51:51;;;;;;;9.77;3.13;;;;;;;3.20;100.00;99487.59;10501731;28;20219;-66
2022/01/06 10:56:59;;;;;;;9.07;3.23;;;;;;;3.32;100.00;99492.78;10501570;28;20705;-67
2022/01/06 11:02:06;;;;;;;7.23;3.20;;;;;;;2.98;100.00;99507.13;10501134;28;20244;-65
2022/01/06 11:07:09;;;;;;;9.53;3.97;;;;;;;2.81;100.00;99506.16;10500376;28;20220;-65
2022/01/06 11:12:31;;;;;;;8.83;3.83;;;;;;;2.93;100.00;99513.06;10500519;28;20224;-68
2022/01/06 11:17:36;;;;;;;9.20;3.50;;;;;;;2.65;100.00;99506.88;10501016;28;20228;-65
2022/01/06 11:22:49;;;;;;;8.37;2.97;;;;;;;2.72;100.00;99518.03;10500429;28;20223;-65
2022/01/06 11:28:01;;;;;;;8.10;3.67;;;;;;;2.59;100.00;99516.22;10500823;28;20216;-64
2022/01/06 11:33:06;;;;;;;8.60;4.57;;;;;;;2.40;100.00;99522.03;10500306;28;20220;-69
2022/01/06 11:38:09;;;;;;;9.77;4.37;;;;;;;2.28;100.00;99515.97;10500527;28;20687;-68
2022/01/06 11:43:12;;;;;;;8.90;3.80;;;;;;;2.35;100.00;99521.97;10500533;28;20227;-67
2022/01/06 11:48:17;;;;;;;8.63;3.97;;;;;;;2.61;100.00;99517.94;10507978;28;20230;-64
2022/01/06 11:53:31;;;;;;;8.57;4.50;;;;;;;2.38;100.00;99522.03;10508572;28;20224;-68
2022/01/06 11:58:34;;;;;;;9.23;4.10;;;;;;;2.38;100.00;99530.53;10508931;28;20219;-66
2022/01/06 12:03:41;;;;;;;10.20;4.37;;;;;;;2.42;100.00;99522.91;10508449;28;20227;-69
2022/01/06 12:08:44;;;;;;;8.20;4.30;;;;;;;2.49;100.00;99529.78;10508048;28;20601;-68
2022/01/06 12:13:48;;;;;;;9.80;4.40;;;;;;;2.18;100.00;99546.56;10507774;28;20223;-66
2022/01/06 12:18:53;;;;;;;9.87;3.70;;;;;;;2.24;100.00;99550.03;10505800;28;20556;-67
2022/01/06 12:24:03;;;;;;;7.53;3.27;;;;;;;2.37;100.00;99566.38;10156009;27;9999973;-66
2022/01/06 12:29:12;;;;;;;11.20;2.73;;;;;;;2.42;100.00;99579.25;10545710;28;20239;-68
2022/01/06 12:34:20;;;;;;;5.87;2.20;;;;;;;2.18;100.00;99590.06;10546110;28;20303;-65
2022/01/06 12:39:23;;;;;;;4.73;1.60;;;;;;;1.94;100.00;99616.25;10545608;28;20303;-63
2022/01/06 12:44:28;;;;;;;5.67;2.10;;;;;;;1.69;100.00;99627.00;10545371;28;20220;-67
2022/01/06 12:49:33;;;;;;;14.07;4.93;;;;;;;1.58;100.00;99637.94;10545300;28;20219;-65
2022/01/06 12:54:38;;;;;;;5.07;1.60;;;;;;;1.28;100.00;99663.91;10544902;28;20306;-65
2022/01/06 12:59:46;;;;;;;4.83;2.00;;;;;;;1.25;100.00;99696.22;10506945;28;20216;-65
2022/01/06 13:04:52;;;;;;;5.27;1.60;;;;;;;1.02;100.00;99699.25;10488165;28;20247;-65
2022/01/06 13:09:58;;;;;;;5.07;1.83;;;;;;;0.83;100.00;99721.88;10461029;28;20209;-65
2022/01/06 13:15:03;;;;;;;4.30;1.40;;;;;;;0.58;100.00;99728.25;10461456;28;20223;-68
2022/01/06 13:20:11;;;;;;;4.90;2.17;;;;;;;0.59;100.00;99742.72;10460723;28;20529;-67
2022/01/06 13:25:15;;;;;;;6.90;2.10;;;;;;;0.47;100.00;99759.47;10489407;28;20199;-66
2022/01/06 13:30:30;;;;;;;6.33;2.17;;;;;;;0.60;100.00;99771.66;10543794;28;20242;-65
2022/01/06 13:35:46;;;;;;;7.43;2.80;;;;;;;0.59;100.00;99762.25;10543235;28;20191;-62
2022/01/06 13:40:51;;;;;;;4.57;1.83;;;;;;;0.70;100.00;99783.78;10543369;28;20203;-66
2022/01/06 13:46:05;;;;;;;5.50;2.13;;;;;;;0.76;100.00;99797.50;10543318;28;20264;-65
2022/01/06 13:51:16;;;;;;;6.13;2.17;;;;;;;0.89;100.00;99807.16;10542860;28;20227;-65
2022/01/06 13:56:29;;;;;;;5.57;2.33;;;;;;;0.84;100.00;99813.00;10542703;28;20625;-64
2022/01/06 14:01:33;;;;;;;8.40;2.07;;;;;;;0.74;100.00;99819.59;10542282;28;20244;-63
2022/01/06 14:06:38;;;;;;;4.33;1.90;;;;;;;0.87;100.00;99820.72;10542086;28;20230;-66
2022/01/06 14:11:41;;;;;;;4.90;1.50;;;;;;;0.94;100.00;99840.44;10541815;28;20560;-66
2022/01/06 14:16:44;;;;;;;8.70;2.93;;;;;;;0.97;100.00;99849.03;10541774;28;20638;-65
2022/01/06 14:21:49;;;;;;;4.57;1.63;;;;;;;1.08;100.00;99859.47;10541531;28;20196;-65
2022/01/06 14:26:52;;;;;;;6.20;1.20;;;;;;;1.06;100.00;99864.53;10513311;28;20873;-65
2022/01/06 14:31:56;;;;;;;5.50;1.20;;;;;;;1.12;100.00;99877.41;10499206;28;20207;-62
2022/01/06 14:37:01;;;;;;;4.27;1.30;;;;;;;1.13;100.00;99885.94;10499283;28;20629;-69
2022/01/06 14:42:05;;;;;;;4.67;1.40;;;;;;;1.13;100.00;99896.16;10499099;28;20288;-69
2022/01/06 14:47:08;;;;;;;6.87;1.30;;;;;;;1.17;100.00;99903.06;10498914;28;20192;-62
2022/01/06 14:52:13;;;;;;;3.97;1.10;;;;;;;1.15;100.00;99915.81;10498014;28;20588;-68
2022/01/06 14:57:16;;;;;;;6.10;1.53;;;;;;;1.13;100.00;99935.38;10498370;28;20200;-66
2022/01/06 15:02:20;;;;;;;7.37;1.57;;;;;;;1.15;100.00;99948.19;10497892;28;20242;-64
2022/01/06 15:07:24;;;;;;;4.83;1.43;;;;;;;1.15;99.51;99955.84;10497958;28;20307;-68
2022/01/06 15:12:28;;;;;;;5.17;1.30;;;;;;;1.11;100.00;99970.25;10497824;28;20319;-67
2022/01/06 15:17:31;;;;;;;3.70;1.20;;;;;;;1.25;100.00;99982.44;10497650;28;20581;-69
2022/01/06 15:22:36;;;;;;;4.53;1.50;;;;;;;1.23;97.71;99996.88;10496797;28;20212;-63
2022/01/06 15:27:40;;;;;;;5.57;1.80;;;;;;;1.19;93.89;99998.53;10497575;28;20728;-70
2022/01/06 15:32:44;;;;;;;3.80;1.33;;;;;;;1.18;93.72;99997.66;10524882;28;20660;-65
2022/01/06 15:37:54;;;;;;;5.03;1.23;;;;;;;1.29;91.53;100005.53;10539073;28;20241;-64
2022/01/06 15:42:59;;;;;;;4.07;1.43;;;;;;;0.89;91.41;100019.16;10539026;28;20219;-65
2022/01/06 15:48:02;;;;;;;49.77;23.20;;;;;;;0.98;94.67;100024.44;10538907;28;20289;-66
2022/01/06 15:53:07;;;;;;;5.03;2.13;;;;;;;0.92;98.59;100046.44;10538452;28;20223;-69
2022/01/06 15:58:10;;;;;;;6.17;2.03;;;;;;;1.00;98.70;100048.34;10538729;28;20669;-69
2022/01/06 16:08:36;;;;;;;14.68;7.65;;;;;;;0.99;100.00;100054.28;10513459;28;20458;-64
2022/01/06 16:13:41;;;;;;;8.00;2.60;;;;;;;0.98;100.00;100069.59;10465313;28;20224;-68
2022/01/06 16:18:44;;;;;;;7.90;2.60;;;;;;;0.86;98.82;100069.28;10457863;28;20233;-66
2022/01/06 16:23:49;;;;;;;5.73;2.37;;;;;;;0.80;99.92;100075.13;10457721;28;20342;-64
2022/01/06 16:28:52;;;;;;;4.83;2.37;;;;;;;1.03;99.75;100088.44;10496727;28;20216;-68
2022/01/06 16:33:56;;;;;;;7.00;2.20;;;;;;;0.81;100.00;100110.03;10505746;28;20234;-67
2022/01/06 16:39:00;;;;;;;6.13;3.00;;;;;;;0.26;100.00;100123.91;10507049;28;20224;-67
2022/01/06 16:44:08;;;;;;;5.93;2.63;;;;;;;0.24;100.00;100138.31;10483812;28;20312;-68
2022/01/06 16:49:11;;;;;;;4.83;2.47;;;;;;;0.21;100.00;100141.63;10463895;28;20242;-67
2022/01/06 16:54:16;;;;;;;26.07;15.37;;;;;;;0.19;100.00;100138.16;10461955;28;20225;-70
2022/01/06 16:59:20;;;;;;;13.00;7.07;;;;;;;0.41;100.00;100143.06;10112460;27;10000439;-67
2022/01/06 17:04:23;;;;;;;7.67;2.80;;;;;;;0.27;100.00;100161.34;10477354;28;20233;-64
2022/01/06 17:09:28;;;;;;;6.67;2.17;;;;;;;0.35;100.00;100155.63;10474173;28;20216;-67
2022/01/06 17:14:31;;;;;;;6.57;3.13;;;;;;;0.33;100.00;100172.59;10501853;28;20564;-65
2022/01/06 17:19:34;;;;;;;12.97;2.27;;;;;;;0.26;100.00;100198.75;10502283;28;20216;-66
2022/01/06 17:24:40;;;;;;;7.50;1.90;;;;;;;0.25;100.00;100209.78;10501493;28;20224;-65
2022/01/06 17:29:44;;;;;;;9.63;3.80;;;;;;;0.13;100.00;100213.69;10461359;28;20319;-68
2022/01/06 17:34:55;;;;;;;45.27;18.77;;;;;;;0.17;100.00;100220.59;10460210;28;20359;-70
2022/01/06 17:39:59;;;;;;;6.60;2.77;;;;;;;0.23;100.00;100230.97;10459568;28;20213;-68
2022/01/06 17:45:03;;;;;;;10.43;5.03;;;;;;;0.26;100.00;100239.59;10459056;28;20228;-68
2022/01/06 17:50:07;;;;;;;5.37;1.90;;;;;;;0.21;100.00;100247.94;10459499;28;20212;-64
2022/01/06 17:55:12;;;;;;;6.57;2.43;;;;;;;0.34;100.00;100260.22;10459389;28;20707;-63
2022/01/06 18:00:16;;;;;;;8.37;3.47;;;;;;;0.30;100.00;100250.75;10486283;28;20365;-65
2022/01/06 18:05:22;;;;;;;7.27;2.33;;;;;;;0.36;100.00;100264.56;10542198;28;20254;-67
2022/01/06 18:15:48;;;;;;;7.20;2.53;;;;;;;0.34;100.00;100280.66;10541679;28;20215;-65
2022/01/06 18:20:52;;;;;;;7.40;2.20;;;;;;;0.33;100.00;100284.88;10541771;28;20247;-66
2022/01/06 18:25:58;;;;;;;15.07;5.57;;;;;;;0.41;100.00;100296.19;10541311;28;20216;-67
2022/01/06 18:31:03;;;;;;;9.80;3.27;;;;;;;0.88;100.00;100302.63;10541127;28;20219;-70
2022/01/06 18:36:08;;;;;;;7.47;2.47;;;;;;;0.73;100.00;100320.06;10541871;28;20632;-67
2022/01/06 18:41:17;;;;;;;5.23;2.13;;;;;;;0.68;100.00;100339.50;10540811;28;20230;-61
2022/01/06 18:46:20;;;;;;;8.90;3.90;;;;;;;0.42;100.00;100340.41;10540514;28;20280;-70
2022/01/06 18:51:24;;;;;;;17.97;7.87;;;;;;;0.59;100.00;100344.34;10540488;28;20921;-63
2022/01/06 18:56:29;;;;;;;8.50;2.23;;;;;;;0.53;100.00;100350.16;10541455;28;20188;-65
2022/01/06 19:01:33;;;;;;;5.53;2.03;;;;;;;0.57;100.00;100374.94;10515385;28;20220;-67
2022/01/06 19:06:36;;;;;;;5.97;2.00;;;;;;;0.62;100.00;100364.88;10497403;28;20553;-66
2022/01/06 19:11:41;;;;;;;12.80;5.33;;;;;;;0.67;100.00;100378.63;10497666;28;20234;-67
2022/01/06 19:16:44;;;;;;;5.40;2.03;;;;;;;0.47;100.00;100389.91;10497261;28;20192;-66
2022/01/06 19:21:48;;;;;;;6.33;2.63;;;;;;;0.60;100.00;100408.25;10497834;28;20230;-65
2022/01/06 19:26:52;;;;;;;6.63;2.10;;;;;;;0.76;100.00;100409.56;10497365;28;20299;-64
2022/01/06 19:31:56;;;;;;;5.27;1.40;;;;;;;0.81;100.00;100418.22;10497103;28;20675;-69
2022/01/06 19:36:59;;;;;;;6.10;1.77;;;;;;;0.70;100.00;100425.56;10496951;28;20238;-65
2022/01/06 19:42:05;;;;;;;5.57;1.80;;;;;;;0.72;100.00;100431.59;10497213;28;20307;-66
2022/01/06 19:47:08;;;;;;;6.53;1.87;;;;;;;0.69;99.03;100443.41;10496972;28;20218;-64
2022/01/06 19:52:12;;;;;;;4.27;1.60;;;;;;;0.65;98.39;100451.78;10497182;28;20230;-63
2022/01/06 19:57:24;;;;;;;7.07;1.87;;;;;;;0.72;96.40;100461.34;10497083;28;20219;-71
2022/01/06 20:02:28;;;;;;;6.97;2.60;;;;;;;0.41;90.12;100467.19;10528582;28;20300;-64
2022/01/06 20:07:31;;;;;;;6.13;2.30;;;;;;;0.68;87.67;100474.84;10543609;28;20219;-68
2022/01/06 20:12:36;;;;;;;5.23;1.60;;;;;;;0.52;87.46;100485.41;10546613;28;20287;-72
2022/01/06 20:17:40;;;;;;;9.07;2.40;;;;;;;0.48;86.72;100502.31;10546522;28;20307;-69
2022/01/06 20:22:45;;;;;;;4.03;1.37;;;;;;;0.37;86.13;100496.00;10546801;28;20594;-68
2022/01/06 20:27:51;;;;;;;8.97;1.70;;;;;;;0.36;84.69;100512.13;10545903;28;20235;-66
2022/01/06 20:32:54;;;;;;;4.57;1.20;;;;;;;0.39;82.69;100513.91;10514846;28;20246;-68
2022/01/06 20:37:59;;;;;;;4.93;1.13;;;;;;;0.31;83.00;100513.63;10503769;28;20208;-67
2022/01/06 20:43:05;;;;;;;2.93;1.00;;;;;;;0.37;82.81;100528.28;10503490;28;20230;-71
2022/01/06 20:53:29;;;;;;;4.67;1.57;;;;;;;0.22;84.16;100543.97;10503265;28;20234;-72
2022/01/06 20:58:33;;;;;;;4.20;1.30;;;;;;;0.09;83.46;100553.72;10503132;28;20230;-68
2022/01/06 21:03:37;;;;;;;78.33;37.20;;;;;;;0.43;83.55;100559.97;10502160;28;20262;-72
2022/01/06 21:08:40;;;;;;;4.87;1.80;;;;;;;0.35;81.67;100569.09;10502734;28;20607;-68
2022/01/06 21:13:45;;;;;;;3.33;1.07;;;;;;;0.28;81.39;100574.78;10501036;28;20685;-65
2022/01/06 21:18:48;;;;;;;4.00;1.33;;;;;;;0.28;81.16;100587.56;10500478;28;20773;-70
2022/01/06 21:23:52;;;;;;;4.93;1.13;;;;;;;0.25;81.14;100599.34;10501959;28;20216;-66
2022/01/06 21:28:56;;;;;;;5.40;1.47;;;;;;;0.16;79.64;100609.22;10501729;28;20553;-66
2022/01/06 21:34:00;;;;;;;5.13;1.30;;;;;;;0.08;79.94;100608.97;10501707;28;20549;-70
2022/01/06 21:39:03;;;;;;;2.63;0.97;;;;;;;-0.08;80.08;100629.63;10501507;28;20307;-74
2022/01/06 21:44:08;;;;;;;7.30;2.53;;;;;;;-0.10;80.15;100628.69;10501057;28;20216;-66
2022/01/06 21:49:11;;;;;;;3.80;1.40;;;;;;;-0.12;81.30;100635.41;10501236;28;20274;-67
2022/01/06 21:54:14;;;;;;;5.57;1.30;;;;;;;-0.30;79.69;100645.84;10500604;28;20232;-68
2022/01/06 21:59:19;;;;;;;4.97;1.27;;;;;;;-0.53;81.51;100656.84;10506079;28;20556;-67
2022/01/06 22:04:22;;;;;;;4.47;1.20;;;;;;;-0.44;81.11;100662.28;10542360;28;20247;-69
2022/01/06 22:09:26;;;;;;;4.33;1.43;;;;;;;-0.40;81.32;100669.22;10542011;28;20208;-69
2022/01/06 22:14:30;;;;;;;5.13;1.47;;;;;;;-0.49;81.85;100674.00;10541750;28;20223;-69
2022/01/06 22:19:33;;;;;;;6.33;1.27;;;;;;;-0.56;82.73;100687.31;10542130;28;20285;-68
2022/01/06 22:24:37;;;;;;;5.73;1.47;;;;;;;-0.43;82.44;100694.59;10541832;28;20291;-67
2022/01/06 22:29:45;;;;;;;5.93;1.33;;;;;;;-0.47;82.36;100713.16;10541077;28;20299;-65
2022/01/06 22:34:48;;;;;;;4.90;1.43;;;;;;;-0.55;83.37;100722.16;10541092;28;20260;-72
2022/01/06 22:39:54;;;;;;;5.23;1.60;;;;;;;-0.73;84.32;100724.00;10541391;28;20184;-61
2022/01/06 22:44:59;;;;;;;12.93;6.73;;;;;;;-0.84;86.75;100730.31;10541069;28;20196;-67
2022/01/06 22:50:04;;;;;;;3.20;1.07;;;;;;;-0.55;85.31;100746.78;10540358;28;20203;-69
2022/01/06 22:55:09;;;;;;;5.90;1.37;;;;;;;-0.70;86.53;100744.50;10540670;28;20216;-70
2022/01/06 23:00:20;;;;;;;5.87;1.37;;;;;;;-0.78;88.95;100753.50;10527296;28;20211;-70
2022/01/06 23:05:24;;;;;;;5.23;1.80;;;;;;;-0.82;89.64;100758.41;10498215;28;20232;-69
2022/01/06 23:10:28;;;;;;;4.47;1.53;;;;;;;-0.78;89.28;100767.91;10498092;28;20203;-66
2022/01/06 23:15:33;;;;;;;5.70;1.93;;;;;;;-0.71;89.24;100778.44;10497725;28;20262;-69
2022/01/06 23:20:37;;;;;;;6.83;1.90;;;;;;;-0.93;90.92;100775.78;10497697;28;20204;-68
2022/01/06 23:25:41;;;;;;;7.57;2.67;;;;;;;-1.09;93.08;100785.25;10497851;28;20284;-68
2022/01/06 23:30:47;;;;;;;9.83;2.60;;;;;;;-0.94;93.86;100786.78;10497584;28;20196;-68
2022/01/06 23:35:50;;;;;;;7.57;2.93;;;;;;;-0.88;93.11;100788.72;10498291;28;20215;-70
2022/01/06 23:40:54;;;;;;;5.87;2.80;;;;;;;-1.14;94.69;100791.84;10499671;28;20219;-70
2022/01/06 23:45:59;;;;;;;8.30;2.93;;;;;;;-1.15;96.84;100790.97;10500683;28;20614;-67
2022/01/06 23:51:03;;;;;;;9.03;3.20;;;;;;;-1.24;97.99;100795.63;10501143;28;20680;-65